createdAt,value
2022-08-07T00:07:42.794Z,0
2022-08-07T00:16:33.273Z,0
2022-08-07T00:26:49.618Z,0
2022-08-07T00:35:23.564Z,0
2022-08-07T00:44:24.386Z,0
2022-08-07T00:54:34.171Z,0
2022-08-07T01:02:52.647Z,0
2022-08-07T01:11:10.747Z,0
2022-08-07T01:20:17.827Z,0
2022-08-07T01:29:09.983Z,0
2022-08-07T01:37:38.067Z,0
2022-08-07T01:45:56.254Z,0
2022-08-07T01:56:04.743Z,0
2022-08-07T02:06:31.044Z,0
2022-08-07T02:15:22.863Z,0
2022-08-07T02:23:44.694Z,0
2022-08-07T02:32:15.831Z,0
2022-08-07T02:41:56.503Z,0
2022-08-07T02:50:44.622Z,0
2022-08-07T02:59:00.395Z,0
2022-08-07T03:07:10.529Z,0
2022-08-07T03:15:55.562Z,0
2022-08-07T03:23:21.516Z,0
2022-08-07T03:32:49.337Z,0
2022-08-07T03:41:08.991Z,0
2022-08-07T03:49:53.567Z,0
2022-08-07T04:00:33.781Z,0
2022-08-07T04:08:31.896Z,0
2022-08-07T04:20:14.442Z,0
2022-08-07T04:29:12.469Z,0
2022-08-07T04:38:29.657Z,0
2022-08-07T04:48:28.119Z,0
2022-08-07T05:00:32.492Z,0
2022-08-07T05:10:08.025Z,0
2022-08-07T05:20:32.020Z,0
2022-08-07T05:30:32.891Z,0
2022-08-07T05:38:58.443Z,0
2022-08-07T05:49:27.649Z,0
2022-08-07T05:59:24.729Z,0
2022-08-07T06:08:55.866Z,0
2022-08-07T06:17:30.677Z,0
2022-08-07T06:28:49.115Z,0
2022-08-07T06:37:20.511Z,0
2022-08-07T06:47:38.863Z,0
2022-08-07T07:00:10.580Z,0
2022-08-07T07:09:57.795Z,0
2022-08-07T07:16:45.274Z,0
2022-08-07T07:29:40.762Z,0
2022-08-07T07:38:50.236Z,0
2022-08-07T07:48:59.847Z,0
2022-08-07T07:58:37.187Z,0
2022-08-07T08:08:58.368Z,0
2022-08-07T08:18:42.149Z,0
2022-08-07T08:29:01.694Z,0
2022-08-07T08:38:21.689Z,0
2022-08-07T08:46:47.187Z,0
2022-08-07T08:55:20.946Z,0
2022-08-07T09:04:09.155Z,0
2022-08-07T09:12:19.897Z,0
2022-08-07T09:25:14.731Z,0
2022-08-07T09:34:37.524Z,0
2022-08-07T09:44:45.290Z,0
2022-08-07T09:57:28.902Z,0
2022-08-07T10:06:49.009Z,0
2022-08-07T10:16:54.730Z,0
2022-08-07T10:26:05.541Z,0
2022-08-07T10:34:27.139Z,0
2022-08-07T10:43:34.572Z,0
2022-08-07T10:52:31.678Z,0
2022-08-07T11:01:05.337Z,0
2022-08-07T11:10:41.512Z,0
2022-08-07T11:20:12.000Z,0
2022-08-07T11:28:24.720Z,0
2022-08-07T11:37:18.422Z,0
2022-08-07T11:46:16.905Z,0
2022-08-07T11:56:08.501Z,0
2022-08-07T12:07:08.956Z,0
2022-08-07T12:16:31.623Z,0
2022-08-07T12:26:01.044Z,0
2022-08-07T12:35:14.111Z,0
2022-08-07T12:44:49.134Z,0
2022-08-07T12:54:54.408Z,0
2022-08-07T13:02:59.241Z,0
2022-08-07T13:14:32.651Z,0
2022-08-07T13:22:52.708Z,0
2022-08-07T13:33:03.357Z,0
2022-08-07T13:43:11.973Z,0
2022-08-07T13:55:13.297Z,0
2022-08-07T14:04:29.879Z,0
2022-08-07T14:13:18.404Z,0
2022-08-07T14:24:21.012Z,0
2022-08-07T16:14:21.623Z,0
2022-08-07T16:24:58.886Z,17
2022-08-07T16:37:00.204Z,12
2022-08-07T16:48:16.609Z,15
2022-08-07T17:00:14.692Z,20
2022-08-07T17:11:19.041Z,14
2022-08-07T17:20:54.024Z,18
2022-08-07T17:28:58.453Z,23
2022-08-07T17:40:51.824Z,20
2022-08-07T17:50:33.861Z,17
2022-08-07T18:00:27.664Z,17
2022-08-07T18:09:48.128Z,14
2022-08-07T18:23:02.596Z,11
2022-08-07T18:32:41.680Z,9
2022-08-07T18:43:00.988Z,17
2022-08-07T18:56:37.630Z,16
2022-08-07T19:06:58.740Z,10
2022-08-07T19:17:57.350Z,15
2022-08-07T19:29:03.631Z,22
2022-08-07T19:40:30.668Z,12
2022-08-07T19:51:04.727Z,14
2022-08-07T20:02:41.590Z,16
2022-08-07T20:13:23.405Z,13
2022-08-07T20:21:47.069Z,19
2022-08-07T20:31:21.529Z,17
2022-08-07T20:39:31.227Z,21
2022-08-07T20:49:54.981Z,12
2022-08-07T20:58:26.639Z,12
2022-08-07T21:07:19.351Z,22
2022-08-07T21:16:34.801Z,14
2022-08-07T21:25:38.844Z,13
2022-08-07T21:34:45.925Z,14
2022-08-07T21:43:55.713Z,23
2022-08-07T21:53:20.026Z,14
2022-08-07T22:02:54.008Z,14
2022-08-07T22:10:58.459Z,13
2022-08-07T22:20:31.984Z,19
2022-08-07T22:29:17.487Z,17
2022-08-07T22:38:02.205Z,17
2022-08-07T22:47:36.970Z,14
2022-08-07T22:56:49.865Z,21
2022-08-07T23:06:07.914Z,15
2022-08-07T23:17:20.035Z,16
2022-08-07T23:27:12.711Z,18
2022-08-07T23:39:35.993Z,14
2022-08-07T23:48:04.954Z,11
2022-08-07T23:57:45.027Z,15
